sensor_id;sensor_type;location;lat;lon;timestamp;P1;durP1;ratioP1;P2;durP2;ratioP2
20421;SDS011;10370;53.102;18.034;2023-07-24T00:03:06;8.77;;;4.80;;
20421;SDS011;10370;53.102;18.034;2023-07-24T00:08:29;8.48;;;4.78;;
20421;SDS011;10370;53.102;18.034;2023-07-24T00:13:52;8.23;;;4.57;;
20421;SDS011;10370;53.102;18.034;2023-07-24T00:19:15;8.05;;;5.03;;
20421;SDS011;10370;53.102;18.034;2023-07-24T00:24:37;9.13;;;4.65;;
20421;SDS011;10370;53.102;18.034;2023-07-24T00:30:00;10.98;;;4.57;;
20421;SDS011;10370;53.102;18.034;2023-07-24T00:35:23;7.82;;;4.35;;
20421;SDS011;10370;53.102;18.034;2023-07-24T00:40:47;11.15;;;4.80;;
20421;SDS011;10370;53.102;18.034;2023-07-24T00:46:09;15.90;;;5.35;;
20421;SDS011;10370;53.102;18.034;2023-07-24T00:51:33;9.45;;;4.40;;
20421;SDS011;10370;53.102;18.034;2023-07-24T00:56:56;10.85;;;4.63;;
20421;SDS011;10370;53.102;18.034;2023-07-24T01:02:19;6.15;;;4.22;;
20421;SDS011;10370;53.102;18.034;2023-07-24T01:07:42;10.73;;;5.18;;
20421;SDS011;10370;53.102;18.034;2023-07-24T01:13:18;6.43;;;4.40;;
20421;SDS011;10370;53.102;18.034;2023-07-24T01:18:44;7.53;;;4.70;;
20421;SDS011;10370;53.102;18.034;2023-07-24T01:24:19;8.40;;;4.50;;
20421;SDS011;10370;53.102;18.034;2023-07-24T01:29:53;10.77;;;6.43;;
20421;SDS011;10370;53.102;18.034;2023-07-24T01:35:16;9.15;;;5.40;;
20421;SDS011;10370;53.102;18.034;2023-07-24T01:40:39;7.53;;;5.20;;
20421;SDS011;10370;53.102;18.034;2023-07-24T01:46:03;9.70;;;5.30;;
20421;SDS011;10370;53.102;18.034;2023-07-24T01:51:25;8.38;;;4.82;;
20421;SDS011;10370;53.102;18.034;2023-07-24T01:56:48;9.98;;;4.97;;
20421;SDS011;10370;53.102;18.034;2023-07-24T02:02:10;8.20;;;4.50;;
20421;SDS011;10370;53.102;18.034;2023-07-24T02:07:33;8.95;;;4.78;;
20421;SDS011;10370;53.102;18.034;2023-07-24T02:12:56;9.80;;;5.03;;
20421;SDS011;10370;53.102;18.034;2023-07-24T02:18:18;9.83;;;5.10;;
20421;SDS011;10370;53.102;18.034;2023-07-24T02:23:41;10.30;;;4.97;;
20421;SDS011;10370;53.102;18.034;2023-07-24T02:29:03;9.27;;;5.47;;
20421;SDS011;10370;53.102;18.034;2023-07-24T02:34:26;9.60;;;4.97;;
20421;SDS011;10370;53.102;18.034;2023-07-24T02:39:51;9.10;;;5.40;;
20421;SDS011;10370;53.102;18.034;2023-07-24T02:45:14;11.93;;;5.38;;
20421;SDS011;10370;53.102;18.034;2023-07-24T02:50:37;9.57;;;5.18;;
20421;SDS011;10370;53.102;18.034;2023-07-24T02:56:01;14.32;;;4.95;;
20421;SDS011;10370;53.102;18.034;2023-07-24T03:01:24;7.30;;;4.55;;
20421;SDS011;10370;53.102;18.034;2023-07-24T03:06:46;11.18;;;4.97;;
20421;SDS011;10370;53.102;18.034;2023-07-24T03:12:09;10.63;;;5.18;;
20421;SDS011;10370;53.102;18.034;2023-07-24T03:17:33;9.40;;;5.13;;
20421;SDS011;10370;53.102;18.034;2023-07-24T03:22:55;11.48;;;4.97;;
20421;SDS011;10370;53.102;18.034;2023-07-24T03:28:18;14.43;;;5.13;;
20421;SDS011;10370;53.102;18.034;2023-07-24T03:33:40;20.92;;;5.70;;
20421;SDS011;10370;53.102;18.034;2023-07-24T03:39:03;11.32;;;5.45;;
20421;SDS011;10370;53.102;18.034;2023-07-24T03:44:25;15.75;;;6.00;;
20421;SDS011;10370;53.102;18.034;2023-07-24T03:49:48;18.02;;;5.88;;
20421;SDS011;10370;53.102;18.034;2023-07-24T03:55:11;18.95;;;5.75;;
20421;SDS011;10370;53.102;18.034;2023-07-24T04:00:33;29.50;;;6.07;;
20421;SDS011;10370;53.102;18.034;2023-07-24T04:05:56;11.23;;;4.90;;
20421;SDS011;10370;53.102;18.034;2023-07-24T04:11:19;7.38;;;4.55;;
20421;SDS011;10370;53.102;18.034;2023-07-24T04:16:41;10.35;;;4.50;;
20421;SDS011;10370;53.102;18.034;2023-07-24T04:22:04;10.52;;;4.30;;
20421;SDS011;10370;53.102;18.034;2023-07-24T04:27:27;9.43;;;4.28;;
20421;SDS011;10370;53.102;18.034;2023-07-24T04:32:50;8.15;;;4.47;;
20421;SDS011;10370;53.102;18.034;2023-07-24T04:38:13;6.20;;;4.10;;
20421;SDS011;10370;53.102;18.034;2023-07-24T04:43:35;7.55;;;4.13;;
20421;SDS011;10370;53.102;18.034;2023-07-24T04:48:58;8.98;;;3.50;;
20421;SDS011;10370;53.102;18.034;2023-07-24T04:54:20;8.43;;;3.60;;
20421;SDS011;10370;53.102;18.034;2023-07-24T04:59:43;6.40;;;3.67;;
20421;SDS011;10370;53.102;18.034;2023-07-24T05:05:05;6.72;;;3.72;;
20421;SDS011;10370;53.102;18.034;2023-07-24T05:10:28;6.10;;;3.60;;
20421;SDS011;10370;53.102;18.034;2023-07-24T05:15:53;7.32;;;3.65;;
20421;SDS011;10370;53.102;18.034;2023-07-24T05:21:15;10.75;;;3.78;;
20421;SDS011;10370;53.102;18.034;2023-07-24T05:26:38;5.72;;;3.72;;
20421;SDS011;10370;53.102;18.034;2023-07-24T05:32:00;7.18;;;3.78;;
20421;SDS011;10370;53.102;18.034;2023-07-24T05:37:23;6.45;;;4.00;;
20421;SDS011;10370;53.102;18.034;2023-07-24T05:42:46;5.72;;;3.90;;
20421;SDS011;10370;53.102;18.034;2023-07-24T05:48:09;6.85;;;4.28;;
20421;SDS011;10370;53.102;18.034;2023-07-24T05:53:32;8.98;;;4.45;;
20421;SDS011;10370;53.102;18.034;2023-07-24T05:58:54;8.45;;;4.40;;
20421;SDS011;10370;53.102;18.034;2023-07-24T06:04:23;5.75;;;3.92;;
20421;SDS011;10370;53.102;18.034;2023-07-24T06:09:46;6.95;;;4.18;;
20421;SDS011;10370;53.102;18.034;2023-07-24T06:15:08;9.18;;;4.03;;
20421;SDS011;10370;53.102;18.034;2023-07-24T06:20:31;8.77;;;4.38;;
20421;SDS011;10370;53.102;18.034;2023-07-24T06:25:54;5.63;;;4.13;;
20421;SDS011;10370;53.102;18.034;2023-07-24T06:31:17;7.53;;;4.28;;
20421;SDS011;10370;53.102;18.034;2023-07-24T06:36:40;8.45;;;4.55;;
20421;SDS011;10370;53.102;18.034;2023-07-24T06:42:02;8.40;;;4.85;;
20421;SDS011;10370;53.102;18.034;2023-07-24T06:47:25;8.50;;;4.25;;
20421;SDS011;10370;53.102;18.034;2023-07-24T06:52:48;6.57;;;3.90;;
20421;SDS011;10370;53.102;18.034;2023-07-24T06:58:12;8.95;;;4.13;;
20421;SDS011;10370;53.102;18.034;2023-07-24T07:03:35;6.32;;;4.03;;
20421;SDS011;10370;53.102;18.034;2023-07-24T07:08:57;5.55;;;3.90;;
20421;SDS011;10370;53.102;18.034;2023-07-24T07:14:20;6.85;;;4.03;;
20421;SDS011;10370;53.102;18.034;2023-07-24T07:19:43;6.53;;;4.05;;
20421;SDS011;10370;53.102;18.034;2023-07-24T07:25:05;10.70;;;4.30;;
20421;SDS011;10370;53.102;18.034;2023-07-24T07:30:28;7.10;;;4.47;;
20421;SDS011;10370;53.102;18.034;2023-07-24T07:35:51;6.80;;;4.20;;
20421;SDS011;10370;53.102;18.034;2023-07-24T07:41:13;5.90;;;3.60;;
20421;SDS011;10370;53.102;18.034;2023-07-24T07:46:36;9.55;;;3.70;;
20421;SDS011;10370;53.102;18.034;2023-07-24T07:51:59;5.53;;;3.60;;
20421;SDS011;10370;53.102;18.034;2023-07-24T07:57:21;5.65;;;3.35;;
20421;SDS011;10370;53.102;18.034;2023-07-24T08:02:44;8.20;;;3.10;;
20421;SDS011;10370;53.102;18.034;2023-07-24T08:08:06;4.28;;;2.92;;
20421;SDS011;10370;53.102;18.034;2023-07-24T08:13:29;5.30;;;3.50;;
20421;SDS011;10370;53.102;18.034;2023-07-24T08:18:54;4.60;;;3.00;;
20421;SDS011;10370;53.102;18.034;2023-07-24T08:24:19;5.93;;;3.35;;
20421;SDS011;10370;53.102;18.034;2023-07-24T08:29:41;5.35;;;3.22;;
20421;SDS011;10370;53.102;18.034;2023-07-24T08:35:04;6.22;;;3.10;;
20421;SDS011;10370;53.102;18.034;2023-07-24T08:40:27;6.10;;;3.33;;
20421;SDS011;10370;53.102;18.034;2023-07-24T08:45:49;4.65;;;3.00;;
20421;SDS011;10370;53.102;18.034;2023-07-24T08:51:12;5.03;;;3.10;;
20421;SDS011;10370;53.102;18.034;2023-07-24T08:56:38;6.40;;;3.10;;
20421;SDS011;10370;53.102;18.034;2023-07-24T09:02:09;5.15;;;3.03;;
20421;SDS011;10370;53.102;18.034;2023-07-24T09:07:31;6.07;;;2.85;;
20421;SDS011;10370;53.102;18.034;2023-07-24T09:12:54;4.45;;;2.70;;
20421;SDS011;10370;53.102;18.034;2023-07-24T09:18:17;3.50;;;2.45;;
20421;SDS011;10370;53.102;18.034;2023-07-24T09:23:41;3.97;;;2.60;;
20421;SDS011;10370;53.102;18.034;2023-07-24T09:29:05;6.95;;;2.83;;
20421;SDS011;10370;53.102;18.034;2023-07-24T09:34:27;3.72;;;2.70;;
20421;SDS011;10370;53.102;18.034;2023-07-24T09:39:50;7.20;;;3.15;;
20421;SDS011;10370;53.102;18.034;2023-07-24T09:45:14;5.78;;;3.28;;
20421;SDS011;10370;53.102;18.034;2023-07-24T09:50:37;4.22;;;3.10;;
20421;SDS011;10370;53.102;18.034;2023-07-24T09:56:03;6.35;;;2.92;;
20421;SDS011;10370;53.102;18.034;2023-07-24T10:01:27;4.05;;;3.20;;
20421;SDS011;10370;53.102;18.034;2023-07-24T10:06:53;5.13;;;3.05;;
20421;SDS011;10370;53.102;18.034;2023-07-24T10:12:19;5.57;;;3.38;;
20421;SDS011;10370;53.102;18.034;2023-07-24T10:17:42;5.93;;;3.30;;
20421;SDS011;10370;53.102;18.034;2023-07-24T10:23:05;5.88;;;3.30;;
20421;SDS011;10370;53.102;18.034;2023-07-24T10:28:33;7.35;;;3.17;;
20421;SDS011;10370;53.102;18.034;2023-07-24T10:34:05;5.75;;;3.40;;
20421;SDS011;10370;53.102;18.034;2023-07-24T10:39:37;4.85;;;3.30;;
20421;SDS011;10370;53.102;18.034;2023-07-24T10:45:03;5.63;;;3.35;;
20421;SDS011;10370;53.102;18.034;2023-07-24T10:50:35;5.65;;;3.10;;
20421;SDS011;10370;53.102;18.034;2023-07-24T10:56:02;7.97;;;3.50;;
20421;SDS011;10370;53.102;18.034;2023-07-24T11:01:25;6.28;;;2.88;;
20421;SDS011;10370;53.102;18.034;2023-07-24T11:06:52;7.05;;;3.22;;
20421;SDS011;10370;53.102;18.034;2023-07-24T11:12:15;5.05;;;3.33;;
20421;SDS011;10370;53.102;18.034;2023-07-24T11:17:39;6.95;;;3.10;;
20421;SDS011;10370;53.102;18.034;2023-07-24T11:23:03;5.38;;;3.00;;
20421;SDS011;10370;53.102;18.034;2023-07-24T11:28:26;4.10;;;2.55;;
20421;SDS011;10370;53.102;18.034;2023-07-24T11:33:49;4.00;;;2.72;;
20421;SDS011;10370;53.102;18.034;2023-07-24T11:39:13;6.18;;;2.70;;
20421;SDS011;10370;53.102;18.034;2023-07-24T11:44:45;3.17;;;2.42;;
20421;SDS011;10370;53.102;18.034;2023-07-24T11:50:14;4.25;;;2.10;;
20421;SDS011;10370;53.102;18.034;2023-07-24T11:55:38;4.30;;;2.72;;
20421;SDS011;10370;53.102;18.034;2023-07-24T12:01:01;6.45;;;3.00;;
20421;SDS011;10370;53.102;18.034;2023-07-24T12:06:23;11.85;;;2.85;;
20421;SDS011;10370;53.102;18.034;2023-07-24T12:11:48;3.90;;;2.40;;
20421;SDS011;10370;53.102;18.034;2023-07-24T12:17:17;2.17;;;1.98;;
20421;SDS011;10370;53.102;18.034;2023-07-24T12:22:42;3.60;;;2.35;;
20421;SDS011;10370;53.102;18.034;2023-07-24T12:28:05;3.40;;;2.60;;
20421;SDS011;10370;53.102;18.034;2023-07-24T12:33:27;8.13;;;2.65;;
20421;SDS011;10370;53.102;18.034;2023-07-24T12:38:50;4.28;;;2.80;;
20421;SDS011;10370;53.102;18.034;2023-07-24T12:44:13;3.72;;;2.28;;
20421;SDS011;10370;53.102;18.034;2023-07-24T12:49:36;5.55;;;2.45;;
20421;SDS011;10370;53.102;18.034;2023-07-24T12:54:59;4.80;;;2.30;;
20421;SDS011;10370;53.102;18.034;2023-07-24T13:00:23;17.48;;;2.75;;
20421;SDS011;10370;53.102;18.034;2023-07-24T13:05:46;2.60;;;2.10;;
20421;SDS011;10370;53.102;18.034;2023-07-24T13:11:08;5.00;;;2.50;;
20421;SDS011;10370;53.102;18.034;2023-07-24T13:16:31;4.85;;;2.83;;
20421;SDS011;10370;53.102;18.034;2023-07-24T13:21:54;5.53;;;2.75;;
20421;SDS011;10370;53.102;18.034;2023-07-24T13:27:16;8.15;;;3.08;;
20421;SDS011;10370;53.102;18.034;2023-07-24T13:32:39;5.32;;;3.03;;
20421;SDS011;10370;53.102;18.034;2023-07-24T13:38:01;6.93;;;2.90;;
20421;SDS011;10370;53.102;18.034;2023-07-24T13:43:24;4.32;;;2.60;;
20421;SDS011;10370;53.102;18.034;2023-07-24T13:48:47;7.20;;;3.13;;
20421;SDS011;10370;53.102;18.034;2023-07-24T13:54:09;6.68;;;3.50;;
20421;SDS011;10370;53.102;18.034;2023-07-24T13:59:32;5.68;;;3.03;;
20421;SDS011;10370;53.102;18.034;2023-07-24T14:04:54;6.70;;;3.60;;
20421;SDS011;10370;53.102;18.034;2023-07-24T14:10:17;5.43;;;3.65;;
20421;SDS011;10370;53.102;18.034;2023-07-24T14:15:40;7.32;;;3.67;;
20421;SDS011;10370;53.102;18.034;2023-07-24T14:21:02;11.05;;;4.65;;
20421;SDS011;10370;53.102;18.034;2023-07-24T14:26:25;8.05;;;4.85;;
20421;SDS011;10370;53.102;18.034;2023-07-24T14:31:47;8.50;;;5.93;;
20421;SDS011;10370;53.102;18.034;2023-07-24T14:37:10;7.28;;;5.53;;
20421;SDS011;10370;53.102;18.034;2023-07-24T14:42:33;9.73;;;6.32;;
20421;SDS011;10370;53.102;18.034;2023-07-24T14:47:55;13.45;;;6.65;;
20421;SDS011;10370;53.102;18.034;2023-07-24T14:53:18;12.73;;;6.95;;
20421;SDS011;10370;53.102;18.034;2023-07-24T14:58:41;8.73;;;6.50;;
20421;SDS011;10370;53.102;18.034;2023-07-24T15:04:07;11.93;;;6.72;;
20421;SDS011;10370;53.102;18.034;2023-07-24T15:09:29;10.38;;;6.68;;
20421;SDS011;10370;53.102;18.034;2023-07-24T15:14:52;12.18;;;6.55;;
20421;SDS011;10370;53.102;18.034;2023-07-24T15:20:14;9.40;;;6.05;;
20421;SDS011;10370;53.102;18.034;2023-07-24T15:25:37;11.52;;;6.15;;
20421;SDS011;10370;53.102;18.034;2023-07-24T15:31:00;8.05;;;5.50;;
20421;SDS011;10370;53.102;18.034;2023-07-24T15:36:23;10.43;;;5.40;;
20421;SDS011;10370;53.102;18.034;2023-07-24T15:41:45;7.40;;;4.75;;
20421;SDS011;10370;53.102;18.034;2023-07-24T15:47:07;14.52;;;4.57;;
20421;SDS011;10370;53.102;18.034;2023-07-24T15:52:30;5.72;;;3.70;;
20421;SDS011;10370;53.102;18.034;2023-07-24T15:57:54;7.38;;;3.85;;
20421;SDS011;10370;53.102;18.034;2023-07-24T16:03:16;7.93;;;3.33;;
20421;SDS011;10370;53.102;18.034;2023-07-24T16:08:39;5.90;;;3.45;;
20421;SDS011;10370;53.102;18.034;2023-07-24T16:14:02;7.93;;;3.35;;
20421;SDS011;10370;53.102;18.034;2023-07-24T16:19:25;8.48;;;3.58;;
20421;SDS011;10370;53.102;18.034;2023-07-24T16:24:48;5.78;;;3.60;;
20421;SDS011;10370;53.102;18.034;2023-07-24T16:30:10;5.80;;;3.38;;
20421;SDS011;10370;53.102;18.034;2023-07-24T16:35:33;5.22;;;3.53;;
20421;SDS011;10370;53.102;18.034;2023-07-24T16:40:56;5.20;;;3.75;;
20421;SDS011;10370;53.102;18.034;2023-07-24T16:46:18;6.28;;;3.47;;
20421;SDS011;10370;53.102;18.034;2023-07-24T16:51:44;9.00;;;4.10;;
20421;SDS011;10370;53.102;18.034;2023-07-24T16:57:06;6.03;;;3.90;;
20421;SDS011;10370;53.102;18.034;2023-07-24T17:02:29;6.95;;;4.22;;
20421;SDS011;10370;53.102;18.034;2023-07-24T17:07:53;10.57;;;4.45;;
20421;SDS011;10370;53.102;18.034;2023-07-24T17:13:16;10.00;;;4.40;;
20421;SDS011;10370;53.102;18.034;2023-07-24T17:18:39;10.98;;;4.65;;
20421;SDS011;10370;53.102;18.034;2023-07-24T17:24:01;14.13;;;5.18;;
20421;SDS011;10370;53.102;18.034;2023-07-24T17:29:25;7.38;;;4.45;;
20421;SDS011;10370;53.102;18.034;2023-07-24T17:34:48;7.47;;;4.43;;
20421;SDS011;10370;53.102;18.034;2023-07-24T17:40:11;7.78;;;4.78;;
20421;SDS011;10370;53.102;18.034;2023-07-24T17:45:33;8.90;;;4.90;;
20421;SDS011;10370;53.102;18.034;2023-07-24T17:50:57;9.93;;;4.70;;
20421;SDS011;10370;53.102;18.034;2023-07-24T17:56:19;14.70;;;4.75;;
20421;SDS011;10370;53.102;18.034;2023-07-24T18:01:42;18.13;;;5.18;;
20421;SDS011;10370;53.102;18.034;2023-07-24T18:07:05;15.32;;;5.65;;
20421;SDS011;10370;53.102;18.034;2023-07-24T18:12:27;13.80;;;5.85;;
20421;SDS011;10370;53.102;18.034;2023-07-24T18:17:50;11.07;;;4.72;;
20421;SDS011;10370;53.102;18.034;2023-07-24T18:23:12;10.95;;;4.35;;
20421;SDS011;10370;53.102;18.034;2023-07-24T18:28:35;9.35;;;3.83;;
20421;SDS011;10370;53.102;18.034;2023-07-24T18:33:58;8.93;;;3.50;;
20421;SDS011;10370;53.102;18.034;2023-07-24T18:39:20;11.23;;;3.65;;
20421;SDS011;10370;53.102;18.034;2023-07-24T18:44:43;8.00;;;3.15;;
20421;SDS011;10370;53.102;18.034;2023-07-24T18:50:05;5.35;;;3.20;;
20421;SDS011;10370;53.102;18.034;2023-07-24T18:55:28;6.95;;;2.85;;
20421;SDS011;10370;53.102;18.034;2023-07-24T19:00:51;6.65;;;3.25;;
20421;SDS011;10370;53.102;18.034;2023-07-24T19:06:13;7.25;;;3.35;;
20421;SDS011;10370;53.102;18.034;2023-07-24T19:11:41;6.97;;;3.33;;
20421;SDS011;10370;53.102;18.034;2023-07-24T19:17:04;8.48;;;3.20;;
20421;SDS011;10370;53.102;18.034;2023-07-24T19:22:27;4.88;;;3.05;;
20421;SDS011;10370;53.102;18.034;2023-07-24T19:27:50;6.65;;;3.40;;
20421;SDS011;10370;53.102;18.034;2023-07-24T19:33:13;9.52;;;3.55;;
20421;SDS011;10370;53.102;18.034;2023-07-24T19:38:37;21.63;;;4.10;;
20421;SDS011;10370;53.102;18.034;2023-07-24T19:44:00;25.55;;;3.95;;
20421;SDS011;10370;53.102;18.034;2023-07-24T19:49:27;7.28;;;3.05;;
20421;SDS011;10370;53.102;18.034;2023-07-24T19:54:52;6.53;;;3.17;;
20421;SDS011;10370;53.102;18.034;2023-07-24T20:00:18;8.73;;;2.72;;
20421;SDS011;10370;53.102;18.034;2023-07-24T20:05:53;9.10;;;3.38;;
20421;SDS011;10370;53.102;18.034;2023-07-24T20:11:22;11.50;;;3.58;;
20421;SDS011;10370;53.102;18.034;2023-07-24T20:16:48;9.27;;;3.42;;
20421;SDS011;10370;53.102;18.034;2023-07-24T20:22:11;10.15;;;3.30;;
20421;SDS011;10370;53.102;18.034;2023-07-24T20:27:37;9.50;;;3.78;;
20421;SDS011;10370;53.102;18.034;2023-07-24T20:32:59;53.05;;;5.97;;
20421;SDS011;10370;53.102;18.034;2023-07-24T20:38:23;7.10;;;2.97;;
20421;SDS011;10370;53.102;18.034;2023-07-24T20:43:48;7.85;;;3.10;;
20421;SDS011;10370;53.102;18.034;2023-07-24T20:49:10;13.88;;;3.50;;
20421;SDS011;10370;53.102;18.034;2023-07-24T20:54:33;7.05;;;3.50;;
20421;SDS011;10370;53.102;18.034;2023-07-24T20:59:55;8.00;;;3.42;;
20421;SDS011;10370;53.102;18.034;2023-07-24T21:05:18;8.30;;;3.25;;
20421;SDS011;10370;53.102;18.034;2023-07-24T21:10:41;9.10;;;3.58;;
20421;SDS011;10370;53.102;18.034;2023-07-24T21:16:03;10.02;;;3.47;;
20421;SDS011;10370;53.102;18.034;2023-07-24T21:21:26;9.88;;;3.35;;
20421;SDS011;10370;53.102;18.034;2023-07-24T21:26:49;8.88;;;3.67;;
20421;SDS011;10370;53.102;18.034;2023-07-24T21:32:12;8.75;;;3.78;;
20421;SDS011;10370;53.102;18.034;2023-07-24T21:37:35;8.25;;;3.95;;
20421;SDS011;10370;53.102;18.034;2023-07-24T21:42:59;9.73;;;4.00;;
20421;SDS011;10370;53.102;18.034;2023-07-24T21:48:21;14.40;;;4.45;;
20421;SDS011;10370;53.102;18.034;2023-07-24T21:53:44;9.63;;;4.38;;
20421;SDS011;10370;53.102;18.034;2023-07-24T21:59:07;10.85;;;3.65;;
20421;SDS011;10370;53.102;18.034;2023-07-24T22:04:29;12.32;;;4.00;;
20421;SDS011;10370;53.102;18.034;2023-07-24T22:09:52;5.45;;;3.22;;
20421;SDS011;10370;53.102;18.034;2023-07-24T22:15:14;10.10;;;3.78;;
20421;SDS011;10370;53.102;18.034;2023-07-24T22:20:37;8.23;;;3.67;;
20421;SDS011;10370;53.102;18.034;2023-07-24T22:26:02;7.63;;;3.78;;
20421;SDS011;10370;53.102;18.034;2023-07-24T22:31:24;8.60;;;3.88;;
20421;SDS011;10370;53.102;18.034;2023-07-24T22:36:47;11.85;;;4.00;;
20421;SDS011;10370;53.102;18.034;2023-07-24T22:42:09;10.77;;;4.32;;
20421;SDS011;10370;53.102;18.034;2023-07-24T22:47:32;10.60;;;4.38;;
20421;SDS011;10370;53.102;18.034;2023-07-24T22:52:55;7.38;;;4.30;;
20421;SDS011;10370;53.102;18.034;2023-07-24T22:58:19;7.65;;;4.50;;
20421;SDS011;10370;53.102;18.034;2023-07-24T23:03:41;8.30;;;4.40;;
20421;SDS011;10370;53.102;18.034;2023-07-24T23:09:04;9.38;;;4.03;;
20421;SDS011;10370;53.102;18.034;2023-07-24T23:14:27;10.05;;;4.10;;
20421;SDS011;10370;53.102;18.034;2023-07-24T23:19:49;8.07;;;4.50;;
20421;SDS011;10370;53.102;18.034;2023-07-24T23:25:12;8.02;;;4.43;;
20421;SDS011;10370;53.102;18.034;2023-07-24T23:30:38;7.78;;;4.00;;
20421;SDS011;10370;53.102;18.034;2023-07-24T23:36:05;8.75;;;4.30;;
20421;SDS011;10370;53.102;18.034;2023-07-24T23:41:31;9.35;;;4.40;;
20421;SDS011;10370;53.102;18.034;2023-07-24T23:46:54;7.40;;;4.65;;
20421;SDS011;10370;53.102;18.034;2023-07-24T23:52:17;7.18;;;4.65;;
20421;SDS011;10370;53.102;18.034;2023-07-24T23:57:40;8.77;;;5.05;;
